Time;durP1;ratioP1;P1;durP2;ratioP2;P2;SDS_P1;SDS_P2;PMS_P1;PMS_P2;Temp;Humidity;BMP_temperature;BMP_pressure;BME280_temperature;BME280_humidity;BME280_pressure;Samples;Min_cycle;Max_cycle;Signal;HPM_P1;HPM_P2
2022/06/17 00:00:13;;;;;;;2.30;1.73;;;;;;;;;;5037986;28;20021;-78
2022/06/17 00:02:39;;;;;;;3.08;1.77;;;;;;;;;;5037502;28;20056;-78
2022/06/17 00:05:05;;;;;;;3.10;1.77;;;;;;;;;;5039059;28;20059;-78
2022/06/17 00:07:31;;;;;;;6.80;1.80;;;;;;;;;;5038336;28;20022;-77
2022/06/17 00:09:56;;;;;;;2.92;1.98;;;;;;;;;;5037813;28;20460;-77
2022/06/17 00:12:21;;;;;;;1.90;1.75;;;;;;;;;;5038493;28;20022;-77
2022/06/17 00:17:30;;;;;;;3.17;2.03;;;;;;;;;;5037050;28;20096;-77
2022/06/17 00:19:56;;;;;;;2.08;1.85;;;;;;;;;;5037567;28;20021;-77
2022/06/17 00:22:22;;;;;;;2.90;2.30;;;;;;;;;;5037547;28;20029;-77
2022/06/17 00:24:50;;;;;;;2.72;2.38;;;;;;;;;;5035706;28;20077;-77
2022/06/17 00:27:15;;;;;;;3.72;2.13;;;;;;;;;;5037306;28;20048;-77
2022/06/17 00:29:41;;;;;;;3.08;2.03;;;;;;;;;;5039698;28;20371;-77
2022/06/17 00:32:07;;;;;;;2.47;2.00;;;;;;;;;;5039723;28;20036;-78
2022/06/17 00:34:32;;;;;;;3.60;2.33;;;;;;;;;;5038558;28;20048;-77
2022/06/17 00:36:59;;;;;;;3.95;2.35;;;;;;;;;;5039446;28;20091;-77
2022/06/17 00:39:31;;;;;;;2.72;2.00;;;;;;;;;;5036092;28;20112;-77
2022/06/17 00:42:07;;;;;;;3.33;2.08;;;;;;;;;;5037115;28;20034;-77
2022/06/17 00:44:48;;;;;;;3.92;2.30;;;;;;;;;;5033949;28;20015;-77
2022/06/17 00:47:29;;;;;;;3.67;2.45;;;;;;;;;;5035977;28;20029;-77
2022/06/17 00:50:01;;;;;;;3.30;2.35;;;;;;;;;;5037635;28;20025;-78
2022/06/17 00:52:49;;;;;;;3.25;2.30;;;;;;;;;;5038856;28;20036;-78
2022/06/17 00:55:26;;;;;;;5.22;2.50;;;;;;;;;;5051772;28;20051;-77
2022/06/17 00:57:52;;;;;;;3.78;2.20;;;;;;;;;;5034026;28;20029;-77
2022/06/17 01:00:20;;;;;;;2.45;2.05;;;;;;;;;;5035059;28;20377;-77
2022/06/17 01:02:49;;;;;;;2.70;2.22;;;;;;;;;;5035172;28;20087;-78
2022/06/17 01:05:18;;;;;;;3.03;2.03;;;;;;;;;;5034543;28;20025;-79
2022/06/17 01:07:55;;;;;;;3.10;2.05;;;;;;;;;;5037884;28;20064;-78
2022/06/17 01:10:21;;;;;;;2.08;1.88;;;;;;;;;;5041265;28;20033;-78
2022/06/17 01:12:59;;;;;;;3.67;2.08;;;;;;;;;;5042994;28;20032;-78
2022/06/17 01:15:28;;;;;;;2.83;2.35;;;;;;;;;;5043359;28;20022;-78
2022/06/17 01:17:54;;;;;;;3.80;2.00;;;;;;;;;;5041730;28;20059;-78
2022/06/17 01:20:22;;;;;;;6.35;2.00;;;;;;;;;;5039709;28;20064;-78
2022/06/17 01:22:51;;;;;;;4.50;2.42;;;;;;;;;;5041224;28;20029;-77
2022/06/17 01:25:24;;;;;;;3.28;2.60;;;;;;;;;;5042108;28;20026;-78
2022/06/17 01:27:53;;;;;;;3.95;2.55;;;;;;;;;;5060385;23;20106;-72
2022/06/17 01:30:24;;;;;;;6.32;2.90;;;;;;;;;;5048821;28;20040;-73
2022/06/17 01:32:55;;;;;;;4.75;2.97;;;;;;;;;;5048739;28;20555;-73
2022/06/17 01:35:23;;;;;;;3.30;2.50;;;;;;;;;;5048696;28;20060;-73
2022/06/17 01:37:49;;;;;;;3.85;2.95;;;;;;;;;;5048413;28;20036;-73
2022/06/17 01:40:16;;;;;;;4.05;2.75;;;;;;;;;;5048363;28;20029;-73
2022/06/17 01:42:42;;;;;;;4.10;2.72;;;;;;;;;;5048536;28;20027;-73
2022/06/17 01:45:08;;;;;;;4.22;2.45;;;;;;;;;;5048374;28;20032;-73
2022/06/17 01:47:36;;;;;;;3.72;2.60;;;;;;;;;;5048552;28;20063;-73
2022/06/17 01:50:07;;;;;;;3.67;2.65;;;;;;;;;;5049824;28;20533;-73
2022/06/17 01:52:40;;;;;;;4.82;2.55;;;;;;;;;;5052553;28;20039;-73
2022/06/17 01:55:11;;;;;;;;;;;;;;;;;;5052882;28;20040;-73
2022/06/17 01:57:42;;;;;;;2.60;2.33;;;;;;;;;;5052241;28;20214;-73
2022/06/17 02:00:16;;;;;;;2.55;2.35;;;;;;;;;;5052121;28;20037;-73
2022/06/17 02:02:44;;;;;;;3.67;2.60;;;;;;;;;;5052298;28;20112;-73
2022/06/17 02:05:11;;;;;;;3.90;2.47;;;;;;;;;;5052434;28;20032;-72
2022/06/17 02:07:43;;;;;;;4.40;2.50;;;;;;;;;;5052055;28;20068;-73
2022/06/17 02:10:09;;;;;;;3.28;2.38;;;;;;;;;;5051817;28;20496;-73
2022/06/17 02:12:35;;;;;;;5.07;2.50;;;;;;;;;;5052081;28;20117;-72
2022/06/17 02:15:01;;;;;;;4.07;2.30;;;;;;;;;;5051889;28;20250;-72
2022/06/17 02:17:31;;;;;;;3.58;2.45;;;;;;;;;;5051953;28;20021;-73
2022/06/17 02:19:57;;;;;;;4.10;2.22;;;;;;;;;;5051663;28;20017;-73
2022/06/17 02:22:25;;;;;;;8.00;2.50;;;;;;;;;;5052265;28;20039;-73
2022/06/17 02:24:54;;;;;;;3.88;2.30;;;;;;;;;;5051811;28;20124;-73
2022/06/17 02:27:21;;;;;;;2.70;2.40;;;;;;;;;;5051600;28;20032;-73
2022/06/17 02:29:48;;;;;;;4.53;2.30;;;;;;;;;;5052178;28;20708;-73
2022/06/17 02:32:14;;;;;;;3.13;2.13;;;;;;;;;;5051954;28;20041;-73
2022/06/17 02:34:47;;;;;;;3.10;2.53;;;;;;;;;;5051638;28;20251;-73
2022/06/17 02:37:16;;;;;;;2.88;2.40;;;;;;;;;;5051478;28;20051;-73
2022/06/17 02:39:45;;;;;;;4.05;2.40;;;;;;;;;;5051306;28;20025;-73
2022/06/17 02:42:20;;;;;;;4.55;2.50;;;;;;;;;;5051625;28;20445;-73
2022/06/17 02:44:48;;;;;;;2.53;2.25;;;;;;;;;;5051471;28;20033;-73
2022/06/17 02:47:14;;;;;;;3.05;2.15;;;;;;;;;;5051490;28;20032;-73
2022/06/17 02:49:40;;;;;;;3.75;2.67;;;;;;;;;;5051090;28;20047;-73
2022/06/17 02:52:12;;;;;;;4.95;2.85;;;;;;;;;;5051464;28;20431;-73
2022/06/17 02:54:48;;;;;;;4.38;2.60;;;;;;;;;;5051283;28;20033;-73
2022/06/17 02:57:23;;;;;;;4.68;2.30;;;;;;;;;;5051740;28;20033;-73
2022/06/17 02:59:53;;;;;;;2.90;2.42;;;;;;;;;;5051046;28;20025;-73
2022/06/17 03:02:32;;;;;;;2.70;2.50;;;;;;;;;;5049978;28;20033;-73
2022/06/17 03:04:59;;;;;;;2.55;2.30;;;;;;;;;;5051060;28;20024;-72
2022/06/17 03:07:28;;;;;;;3.33;2.58;;;;;;;;;;5050991;28;20037;-73
2022/06/17 03:09:53;;;;;;;4.22;2.60;;;;;;;;;;5050766;28;20036;-73
2022/06/17 03:12:22;;;;;;;6.10;2.60;;;;;;;;;;5051038;28;20386;-72
2022/06/17 03:15:08;;;;;;;4.47;2.60;;;;;;;;;;5032669;28;20025;-72
2022/06/17 03:17:38;;;;;;;3.92;2.75;;;;;;;;;;5050868;28;20128;-73
2022/06/17 03:20:05;;;;;;;2.78;2.40;;;;;;;;;;5050778;28;20033;-72
2022/06/17 03:22:31;;;;;;;4.25;2.40;;;;;;;;;;5050946;28;20025;-73
2022/06/17 03:25:22;;;;;;;3.22;2.75;;;;;;;;;;5050845;28;20500;-73
2022/06/17 03:28:09;;;;;;;3.50;2.60;;;;;;;;;;5050723;28;20029;-73
2022/06/17 03:30:48;;;;;;;3.42;2.65;;;;;;;;;;5050146;28;20049;-73
2022/06/17 03:33:21;;;;;;;6.13;2.90;;;;;;;;;;5050545;28;20276;-73
2022/06/17 03:35:48;;;;;;;;;;;;;;;;;;5051186;28;20113;-73
2022/06/17 03:38:30;;;;;;;5.53;3.28;;;;;;;;;;5050255;28;20215;-72
2022/06/17 03:41:01;;;;;;;5.03;2.40;;;;;;;;;;5050451;28;20036;-72
2022/06/17 03:43:31;;;;;;;7.25;2.85;;;;;;;;;;5050405;28;20033;-73
2022/06/17 03:46:05;;;;;;;2.92;2.70;;;;;;;;;;5050201;28;20478;-73
2022/06/17 03:48:38;;;;;;;3.15;2.80;;;;;;;;;;5050047;28;20517;-72
2022/06/17 03:51:03;;;;;;;4.20;3.03;;;;;;;;;;5050170;28;20029;-73
2022/06/17 03:53:33;;;;;;;3.28;2.72;;;;;;;;;;5050069;28;20044;-73
2022/06/17 03:56:04;;;;;;;3.78;2.83;;;;;;;;;;5050102;28;20033;-73
2022/06/17 03:58:32;;;;;;;5.75;2.70;;;;;;;;;;5049786;28;20025;-73
2022/06/17 04:01:16;;;;;;;3.63;2.78;;;;;;;;;;5050120;28;20033;-72
2022/06/17 04:03:47;;;;;;;3.72;2.70;;;;;;;;;;5050020;28;20020;-72
2022/06/17 04:06:19;;;;;;;4.57;2.80;;;;;;;;;;5049969;28;20021;-72
2022/06/17 04:08:55;;;;;;;6.63;2.72;;;;;;;;;;5049502;28;20029;-72
2022/06/17 04:11:25;;;;;;;4.68;2.63;;;;;;;;;;5050043;28;20025;-72
2022/06/17 04:13:54;;;;;;;3.83;2.63;;;;;;;;;;5049588;28;20082;-73
2022/06/17 04:16:33;;;;;;;4.55;2.75;;;;;;;;;;5049866;28;20235;-72
2022/06/17 04:19:28;;;;;;;5.30;2.85;;;;;;;;;;5049680;28;20104;-72
2022/06/17 04:21:58;;;;;;;3.40;2.55;;;;;;;;;;5036871;28;20055;-72
2022/06/17 04:24:27;;;;;;;5.13;2.75;;;;;;;;;;5050197;28;20099;-73
2022/06/17 04:26:57;;;;;;;4.05;2.53;;;;;;;;;;5049597;28;20029;-73
2022/06/17 04:29:34;;;;;;;4.78;3.25;;;;;;;;;;5049381;28;20036;-73
2022/06/17 04:32:04;;;;;;;5.78;3.08;;;;;;;;;;5049612;28;20017;-73
2022/06/17 04:34:29;;;;;;;4.45;3.10;;;;;;;;;;5049795;28;20437;-73
2022/06/17 04:37:02;;;;;;;5.78;2.80;;;;;;;;;;5049459;28;20021;-73
2022/06/17 04:39:38;;;;;;;3.60;2.80;;;;;;;;;;5049232;28;20036;-73
2022/06/17 04:42:11;;;;;;;3.45;2.88;;;;;;;;;;5049265;28;20025;-73
2022/06/17 04:44:39;;;;;;;6.15;2.92;;;;;;;;;;5049641;28;20493;-73
2022/06/17 04:47:08;;;;;;;3.70;2.67;;;;;;;;;;5049214;28;20502;-73
2022/06/17 04:49:38;;;;;;;5.40;2.72;;;;;;;;;;5049237;28;20017;-72
2022/06/17 04:52:14;;;;;;;3.75;2.90;;;;;;;;;;5031294;28;20036;-73
2022/06/17 04:54:40;;;;;;;4.93;2.90;;;;;;;;;;5049107;28;20471;-72
2022/06/17 04:57:06;;;;;;;4.25;2.90;;;;;;;;;;5049141;28;20035;-73
2022/06/17 04:59:41;;;;;;;3.40;2.67;;;;;;;;;;5049070;28;20021;-73
2022/06/17 05:02:13;;;;;;;5.68;2.60;;;;;;;;;;5049073;28;20031;-73
2022/06/17 05:04:39;;;;;;;6.53;2.72;;;;;;;;;;5049193;28;20029;-73
2022/06/17 05:07:04;;;;;;;3.47;2.80;;;;;;;;;;5048824;28;20421;-73
2022/06/17 05:09:37;;;;;;;3.05;2.75;;;;;;;;;;5049004;28;20405;-73
2022/06/17 05:12:06;;;;;;;;;;;;;;;;;;5049764;28;20167;-72
2022/06/17 05:14:53;;;;;;;4.65;3.00;;;;;;;;;;5048904;28;20225;-73
2022/06/17 05:17:19;;;;;;;4.90;2.95;;;;;;;;;;5048989;28;20548;-73
2022/06/17 05:19:44;;;;;;;4.00;2.92;;;;;;;;;;5048724;28;20035;-73
2022/06/17 05:22:15;;;;;;;3.70;2.85;;;;;;;;;;5048771;28;20025;-72
2022/06/17 05:24:41;;;;;;;6.72;3.50;;;;;;;;;;5048105;28;20031;-71
2022/06/17 05:27:07;;;;;;;5.20;3.28;;;;;;;;;;5048674;28;20482;-72
2022/06/17 05:29:32;;;;;;;4.32;2.78;;;;;;;;;;5048435;28;20037;-71
2022/06/17 05:31:58;;;;;;;5.13;3.00;;;;;;;;;;5048635;28;20053;-71
2022/06/17 05:34:25;;;;;;;4.22;3.03;;;;;;;;;;5048750;28;20057;-71
2022/06/17 05:36:52;;;;;;;4.93;3.33;;;;;;;;;;5048596;28;20051;-71
2022/06/17 05:39:17;;;;;;;4.82;2.72;;;;;;;;;;5048255;28;20483;-71
2022/06/17 05:41:42;;;;;;;3.58;3.10;;;;;;;;;;5048460;28;20065;-71
2022/06/17 05:44:08;;;;;;;3.65;2.90;;;;;;;;;;5048527;28;20024;-71
2022/06/17 05:46:33;;;;;;;4.05;2.90;;;;;;;;;;5048707;28;20446;-71
2022/06/17 05:48:58;;;;;;;2.85;2.50;;;;;;;;;;5048223;28;20032;-71
2022/06/17 05:51:24;;;;;;;3.58;2.60;;;;;;;;;;5048350;28;20025;-72
2022/06/17 05:53:49;;;;;;;7.63;3.33;;;;;;;;;;5048396;28;20075;-71
2022/06/17 05:56:14;;;;;;;6.82;3.03;;;;;;;;;;5048600;28;20029;-71
2022/06/17 05:58:39;;;;;;;5.13;3.08;;;;;;;;;;5048069;28;20490;-71
2022/06/17 06:01:05;;;;;;;4.07;3.13;;;;;;;;;;5048433;28;20036;-72
2022/06/17 06:03:30;;;;;;;3.67;3.00;;;;;;;;;;5048115;28;20920;-72
2022/06/17 06:05:56;;;;;;;4.00;2.03;;;;;;;;;;5046307;28;20120;-72
2022/06/17 06:08:21;;;;;;;6.15;3.28;;;;;;;;;;5046757;28;20112;-73
2022/06/17 06:10:47;;;;;;;5.63;3.08;;;;;;;;;;5027332;28;20116;-74
2022/06/17 06:13:22;;;;;;;3.00;2.40;;;;;;;;;;5026675;28;20060;-73
2022/06/17 06:15:50;;;;;;;3.13;2.42;;;;;;;;;;5024551;28;20112;-73
2022/06/17 06:18:20;;;;;;;3.72;2.38;;;;;;;;;;5025309;28;20117;-73
2022/06/17 06:20:46;;;;;;;3.90;2.10;;;;;;;;;;5039566;28;20538;-72
2022/06/17 06:23:12;;;;;;;2.53;2.08;;;;;;;;;;5042792;28;20029;-73
2022/06/17 06:25:37;;;;;;;3.40;2.10;;;;;;;;;;5043012;28;20047;-73
2022/06/17 06:28:17;;;;;;;2.72;2.30;;;;;;;;;;5042462;28;20059;-74
2022/06/17 06:30:49;;;;;;;4.90;2.47;;;;;;;;;;5018261;28;20029;-73
2022/06/17 06:33:14;;;;;;;3.38;2.22;;;;;;;;;;5044327;28;20409;-73
2022/06/17 06:35:39;;;;;;;3.63;2.25;;;;;;;;;;5043931;28;20123;-73
2022/06/17 06:38:06;;;;;;;4.28;2.50;;;;;;;;;;5045916;28;20044;-73
2022/06/17 06:40:32;;;;;;;9.73;2.40;;;;;;;;;;5048326;28;20040;-73
2022/06/17 06:42:57;;;;;;;5.28;2.53;;;;;;;;;;5047388;28;20048;-73
2022/06/17 06:45:26;;;;;;;2.60;2.17;;;;;;;;;;5047383;28;20061;-73
2022/06/17 06:47:53;;;;;;;5.43;2.10;;;;;;;;;;5042175;28;20437;-73
2022/06/17 06:50:22;;;;;;;2.80;2.10;;;;;;;;;;5046364;28;20033;-73
2022/06/17 06:52:48;;;;;;;2.88;2.00;;;;;;;;;;5028262;28;20044;-74
2022/06/17 06:55:15;;;;;;;8.55;2.60;;;;;;;;;;5047133;28;20125;-72
2022/06/17 06:57:46;;;;;;;3.55;2.47;;;;;;;;;;5038397;28;20029;-74
2022/06/17 07:00:15;;;;;;;6.28;2.25;;;;;;;;;;5046286;28;20112;-74
2022/06/17 07:02:40;;;;;;;4.90;2.38;;;;;;;;;;5045703;28;20166;-74
2022/06/17 07:05:06;;;;;;;3.58;2.20;;;;;;;;;;5046161;28;20112;-75
2022/06/17 07:07:31;;;;;;;3.60;2.30;;;;;;;;;;5046257;28;20021;-76
2022/06/17 07:09:56;;;;;;;3.80;2.10;;;;;;;;;;5046061;28;20036;-76
2022/06/17 07:12:22;;;;;;;4.70;2.33;;;;;;;;;;5029413;28;20227;-74
2022/06/17 07:14:47;;;;;;;3.38;1.95;;;;;;;;;;5043603;28;20032;-74
2022/06/17 07:17:12;;;;;;;2.20;1.77;;;;;;;;;;5045988;28;20044;-74
2022/06/17 07:19:38;;;;;;;2.58;2.00;;;;;;;;;;5045334;28;20032;-76
2022/06/17 07:22:03;;;;;;;1.92;1.77;;;;;;;;;;5044698;28;20478;-76
2022/06/17 07:24:28;;;;;;;5.28;2.03;;;;;;;;;;5046792;28;20029;-75
2022/06/17 07:26:54;;;;;;;2.78;1.70;;;;;;;;;;5045559;28;20116;-76
2022/06/17 07:29:19;;;;;;;2.55;1.65;;;;;;;;;;5044722;28;20028;-74
2022/06/17 07:31:44;;;;;;;3.75;2.17;;;;;;;;;;5044414;28;20364;-73
2022/06/17 07:34:09;;;;;;;4.77;2.10;;;;;;;;;;5044783;28;20478;-75
2022/06/17 07:42:03;;;;;;;2.88;1.60;;;;;;;;;;5041830;28;20036;-74
2022/06/17 07:44:29;;;;;;;2.15;1.42;;;;;;;;;;5041596;28;20025;-72
2022/06/17 07:46:54;;;;;;;2.05;1.30;;;;;;;;;;5041670;28;20106;-73
2022/06/17 07:49:19;;;;;;;4.13;1.30;;;;;;;;;;5041890;28;20116;-73
2022/06/17 07:51:46;;;;;;;1.67;1.20;;;;;;;;;;5041357;28;20033;-74
2022/06/17 07:54:11;;;;;;;2.10;1.30;;;;;;;;;;5040957;28;20419;-73
2022/06/17 07:56:36;;;;;;;2.55;1.20;;;;;;;;;;5023989;28;20024;-72
2022/06/17 07:59:02;;;;;;;3.33;1.20;;;;;;;;;;5042400;28;20211;-73
2022/06/17 08:01:27;;;;;;;2.03;1.27;;;;;;;;;;5039198;28;20033;-72
2022/06/17 08:03:52;;;;;;;4.40;1.38;;;;;;;;;;5043813;28;20047;-75
2022/06/17 08:06:18;;;;;;;1.40;1.10;;;;;;;;;;5040935;28;20021;-74
2022/06/17 08:08:44;;;;;;;1.33;1.13;;;;;;;;;;5040728;28;20624;-74
2022/06/17 08:11:11;;;;;;;3.78;1.42;;;;;;;;;;5042234;28;20029;-72
2022/06/17 08:13:37;;;;;;;3.67;1.50;;;;;;;;;;5041403;28;20033;-73
2022/06/17 08:16:06;;;;;;;2.67;1.17;;;;;;;;;;5040459;28;20491;-72
2022/06/17 08:18:32;;;;;;;1.42;1.13;;;;;;;;;;5041838;28;20028;-72
2022/06/17 08:20:57;;;;;;;1.52;0.98;;;;;;;;;;5040936;28;20024;-74
2022/06/17 08:23:23;;;;;;;3.33;1.30;;;;;;;;;;5040432;28;20029;-72
2022/06/17 08:25:49;;;;;;;2.20;1.10;;;;;;;;;;5040511;28;20033;-73
2022/06/17 08:28:15;;;;;;;1.80;1.20;;;;;;;;;;5040052;28;20099;-74
2022/06/17 08:30:46;;;;;;;3.30;1.20;;;;;;;;;;5042670;28;20072;-74
2022/06/17 08:33:13;;;;;;;1.63;1.40;;;;;;;;;;5041904;28;20033;-72
2022/06/17 08:35:46;;;;;;;1.92;1.10;;;;;;;;;;5041449;28;20484;-76
2022/06/17 08:38:18;;;;;;;2.25;1.13;;;;;;;;;;5021861;28;20033;-74
2022/06/17 08:40:53;;;;;;;2.00;1.00;;;;;;;;;;5041794;28;20023;-74
2022/06/17 08:43:21;;;;;;;2.28;1.20;;;;;;;;;;5041278;28;20021;-73
2022/06/17 08:46:05;;;;;;;4.00;1.15;;;;;;;;;;5040743;28;20052;-75
2022/06/17 08:48:49;;;;;;;3.30;1.30;;;;;;;;;;5022594;28;20041;-73
2022/06/17 08:51:43;;;;;;;1.52;1.02;;;;;;;;;;5041515;28;20021;-73
2022/06/17 08:54:32;;;;;;;2.20;1.40;;;;;;;;;;5040829;28;20099;-72
2022/06/17 08:57:05;;;;;;;1.33;1.17;;;;;;;;;;5017760;28;20527;-72
2022/06/17 08:59:46;;;;;;;6.15;1.10;;;;;;;;;;5037313;28;20516;-71
2022/06/17 09:02:47;;;;;;;3.70;1.42;;;;;;;;;;5035670;28;20100;-73
2022/06/17 09:05:21;;;;;;;;;;;;;;;;;;5036627;28;20223;-74
2022/06/17 09:08:08;;;;;;;4.00;1.20;;;;;;;;;;5033649;28;20255;-73
2022/06/17 09:10:36;;;;;;;1.60;1.08;;;;;;;;;;5041045;28;20460;-72
2022/06/17 09:13:25;;;;;;;2.95;1.55;;;;;;;;;;5041378;28;20568;-73
2022/06/17 09:16:00;;;;;;;1.60;1.20;;;;;;;;;;5038745;28;20366;-71
2022/06/17 09:18:34;;;;;;;6.15;1.40;;;;;;;;;;5039147;28;20041;-73
2022/06/17 09:21:21;;;;;;;3.17;1.20;;;;;;;;;;5038349;28;20029;-73
2022/06/17 09:23:46;;;;;;;1.67;1.20;;;;;;;;;;5035901;28;20104;-71
2022/06/17 09:26:17;;;;;;;2.40;1.30;;;;;;;;;;5041486;28;20029;-72
2022/06/17 09:28:57;;;;;;;1.73;1.10;;;;;;;;;;5025079;28;20386;-72
2022/06/17 09:31:32;;;;;;;3.13;1.40;;;;;;;;;;5040276;28;20033;-73
2022/06/17 09:34:06;;;;;;;2.83;1.10;;;;;;;;;;5041859;28;20803;-74
2022/06/17 09:36:46;;;;;;;3.63;1.17;;;;;;;;;;5041562;28;20128;-72
2022/06/17 09:39:17;;;;;;;1.10;1.00;;;;;;;;;;5040451;28;20043;-74
2022/06/17 09:41:47;;;;;;;1.67;1.20;;;;;;;;;;5020575;28;20021;-72
2022/06/17 09:44:39;;;;;;;2.22;1.20;;;;;;;;;;5039991;28;20094;-72
2022/06/17 09:47:13;;;;;;;2.08;1.35;;;;;;;;;;5035229;28;20055;-72
2022/06/17 09:49:47;;;;;;;1.90;1.20;;;;;;;;;;5040918;28;20491;-73
2022/06/17 09:52:17;;;;;;;1.33;1.10;;;;;;;;;;5039731;28;20481;-73
2022/06/17 09:55:08;;;;;;;1.48;1.10;;;;;;;;;;5023535;28;20129;-73
2022/06/17 09:57:47;;;;;;;2.60;1.23;;;;;;;;;;5037319;28;20299;-74
2022/06/17 10:00:20;;;;;;;1.93;1.30;;;;;;;;;;5038025;28;20487;-73
2022/06/17 10:02:57;;;;;;;1.20;1.10;;;;;;;;;;5034636;28;20040;-74
2022/06/17 10:05:41;;;;;;;3.40;1.77;;;;;;;;;;5042169;28;20029;-74
2022/06/17 10:08:09;;;;;;;2.47;1.30;;;;;;;;;;5038025;28;20020;-75
2022/06/17 10:10:34;;;;;;;2.10;1.33;;;;;;;;;;5042748;28;20380;-73
2022/06/17 10:13:16;;;;;;;2.22;1.10;;;;;;;;;;5045751;28;20051;-71
2022/06/17 10:18:57;;;;;;;1.98;1.20;;;;;;;;;;5046846;28;20040;-73
2022/06/17 10:21:39;;;;;;;1.70;1.20;;;;;;;;;;5048181;28;20399;-72
2022/06/17 10:24:15;;;;;;;2.50;1.10;;;;;;;;;;5046752;28;20502;-74
2022/06/17 10:27:04;;;;;;;1.48;1.10;;;;;;;;;;5029335;28;20041;-74
2022/06/17 10:29:41;;;;;;;2.50;1.23;;;;;;;;;;5045344;28;20479;-74
2022/06/17 10:32:07;;;;;;;2.60;1.10;;;;;;;;;;5045950;28;20104;-75
2022/06/17 10:34:43;;;;;;;3.42;1.30;;;;;;;;;;5029428;28;20123;-73
2022/06/17 10:37:09;;;;;;;1.05;0.98;;;;;;;;;;5028483;28;20033;-76
2022/06/17 10:39:36;;;;;;;2.10;1.10;;;;;;;;;;5046071;28;20025;-72
2022/06/17 10:42:03;;;;;;;1.45;1.15;;;;;;;;;;5047184;28;20029;-74
2022/06/17 10:44:30;;;;;;;1.98;1.05;;;;;;;;;;5046974;28;20108;-72
2022/06/17 10:47:11;;;;;;;1.60;1.00;;;;;;;;;;5047581;28;20198;-75
2022/06/17 10:49:39;;;;;;;;;;;;;;;;;;5045698;28;20528;-73
2022/06/17 10:52:14;;;;;;;1.85;1.00;;;;;;;;;;5045618;28;20051;-74
2022/06/17 10:54:43;;;;;;;1.85;1.08;;;;;;;;;;5040691;28;20441;-73
2022/06/17 10:57:11;;;;;;;1.55;1.08;;;;;;;;;;5045072;28;20108;-72
2022/06/17 10:59:42;;;;;;;3.03;1.20;;;;;;;;;;5045826;28;20327;-72
2022/06/17 11:02:30;;;;;;;1.27;0.98;;;;;;;;;;5045935;28;20031;-72
2022/06/17 11:05:05;;;;;;;3.63;1.20;;;;;;;;;;5044967;28;20279;-73
2022/06/17 11:07:47;;;;;;;3.95;1.52;;;;;;;;;;5044452;28;20074;-73
2022/06/17 11:10:12;;;;;;;1.48;1.10;;;;;;;;;;5043411;28;20636;-74
2022/06/17 11:12:42;;;;;;;1.93;1.30;;;;;;;;;;5047643;28;20017;-73
2022/06/17 11:15:39;;;;;;;1.67;1.13;;;;;;;;;;5042734;28;20120;-72
2022/06/17 11:18:14;;;;;;;2.38;1.10;;;;;;;;;;5043341;28;20017;-72
2022/06/17 11:20:40;;;;;;;3.25;1.10;;;;;;;;;;5042778;28;20025;-73
2022/06/17 11:23:31;;;;;;;3.03;1.00;;;;;;;;;;5045652;28;20029;-74
2022/06/17 11:26:13;;;;;;;2.20;1.17;;;;;;;;;;5034148;28;20049;-71
2022/06/17 11:28:46;;;;;;;2.10;1.17;;;;;;;;;;5040026;28;21393;-73
2022/06/17 11:31:28;;;;;;;3.00;1.20;;;;;;;;;;5039001;28;20047;-71
2022/06/17 11:33:54;;;;;;;2.97;1.20;;;;;;;;;;5052211;28;20025;-73
2022/06/17 11:36:25;;;;;;;2.47;1.60;;;;;;;;;;5051795;28;20510;-75
2022/06/17 11:38:51;;;;;;;1.35;1.10;;;;;;;;;;5041639;28;20402;-72
2022/06/17 11:41:30;;;;;;;1.88;1.13;;;;;;;;;;5041180;28;20036;-72
2022/06/17 11:44:06;;;;;;;1.30;1.00;;;;;;;;;;5046006;28;20017;-72
2022/06/17 11:46:33;;;;;;;2.35;1.42;;;;;;;;;;5045456;28;20502;-72
2022/06/17 11:49:10;;;;;;;2.50;1.33;;;;;;;;;;5045932;28;20386;-72
2022/06/17 11:51:38;;;;;;;1.65;1.10;;;;;;;;;;5045920;28;20048;-71
2022/06/17 11:54:09;;;;;;;2.10;1.25;;;;;;;;;;5048500;28;20162;-72
2022/06/17 11:56:41;;;;;;;2.92;1.40;;;;;;;;;;5046322;28;20063;-72
2022/06/17 11:59:09;;;;;;;;;;;;;;;;;;5044277;28;20029;-72
2022/06/17 12:01:35;;;;;;;1.58;1.35;;;;;;;;;;5042701;28;19923;-70
2022/06/17 12:04:00;;;;;;;2.80;1.23;;;;;;;;;;5045174;28;20025;-71
2022/06/17 12:06:42;;;;;;;3.75;1.10;;;;;;;;;;5045805;28;20530;-72
2022/06/17 12:09:22;;;;;;;3.38;1.42;;;;;;;;;;5043116;28;20059;-72
2022/06/17 12:11:51;;;;;;;1.63;1.20;;;;;;;;;;5026173;28;20127;-73
2022/06/17 12:14:39;;;;;;;2.38;1.10;;;;;;;;;;5047116;28;20506;-70
2022/06/17 12:17:11;;;;;;;1.25;1.10;;;;;;;;;;5047166;28;20029;-71
2022/06/17 12:19:36;;;;;;;3.17;0.90;;;;;;;;;;5048674;28;20024;-71
2022/06/17 12:22:18;;;;;;;1.08;1.00;;;;;;;;;;5044731;28;20029;-71
2022/06/17 12:24:54;;;;;;;1.42;1.20;;;;;;;;;;5043964;28;20423;-71
2022/06/17 12:27:34;;;;;;;1.52;0.85;;;;;;;;;;5046835;28;20437;-72
2022/06/17 12:30:14;;;;;;;4.00;1.30;;;;;;;;;;5042270;28;20032;-70
2022/06/17 12:32:53;;;;;;;2.38;1.02;;;;;;;;;;5040565;28;20105;-71
2022/06/17 12:35:37;;;;;;;2.42;1.00;;;;;;;;;;5047849;28;20068;-72
2022/06/17 12:38:10;;;;;;;4.95;1.10;;;;;;;;;;5047382;28;20021;-70
2022/06/17 12:40:35;;;;;;;2.72;1.30;;;;;;;;;;5044990;28;20044;-71
2022/06/17 12:43:42;;;;;;;1.97;1.00;;;;;;;;;;5047315;28;20037;-72
2022/06/17 12:46:22;;;;;;;1.40;0.90;;;;;;;;;;5037259;28;20045;-72
2022/06/17 12:55:10;;;;;;;1.45;1.13;;;;;;;;;;5049086;28;20079;-73
2022/06/17 12:57:58;;;;;;;1.80;0.90;;;;;;;;;;5047889;28;20025;-71
2022/06/17 13:00:33;;;;;;;3.63;1.13;;;;;;;;;;5047472;28;20069;-73
2022/06/17 13:03:10;;;;;;;1.38;0.80;;;;;;;;;;5047288;28;20025;-73
2022/06/17 13:05:41;;;;;;;0.85;0.85;;;;;;;;;;5053947;28;20033;-72
2022/06/17 13:08:19;;;;;;;2.05;0.80;;;;;;;;;;5048840;28;20123;-72
2022/06/17 13:11:07;;;;;;;3.38;0.90;;;;;;;;;;5048836;28;20675;-70
2022/06/17 13:13:33;;;;;;;3.33;1.35;;;;;;;;;;5038541;28;20033;-73
2022/06/17 13:16:00;;;;;;;1.83;0.90;;;;;;;;;;5048670;28;20035;-72
2022/06/17 13:18:45;;;;;;;1.33;0.90;;;;;;;;;;5048417;28;20270;-74
2022/06/17 13:21:30;;;;;;;1.23;1.00;;;;;;;;;;5048755;28;20410;-72
2022/06/17 13:24:17;;;;;;;3.22;1.02;;;;;;;;;;5031618;28;20037;-72
2022/06/17 13:27:08;;;;;;;1.15;0.80;;;;;;;;;;5040862;28;20029;-72
2022/06/17 13:29:52;;;;;;;2.35;1.10;;;;;;;;;;5049202;28;20036;-72
2022/06/17 13:32:32;;;;;;;1.77;1.17;;;;;;;;;;5048796;28;20045;-74
2022/06/17 13:35:00;;;;;;;0.80;0.80;;;;;;;;;;5047151;28;20017;-75
2022/06/17 13:37:36;;;;;;;1.45;0.90;;;;;;;;;;5048959;28;20040;-74
2022/06/17 13:40:07;;;;;;;2.15;0.90;;;;;;;;;;5047778;28;20386;-76
2022/06/17 13:42:34;;;;;;;1.60;0.90;;;;;;;;;;5048660;28;20021;-75
2022/06/17 13:45:15;;;;;;;2.17;0.98;;;;;;;;;;5049134;28;20040;-74
2022/06/17 13:48:08;;;;;;;1.42;0.73;;;;;;;;;;5053098;28;20466;-73
2022/06/17 13:50:39;;;;;;;1.02;0.90;;;;;;;;;;5051132;28;20036;-75
2022/06/17 13:53:23;;;;;;;;;;;;;;;;;;5053123;28;20493;-74
2022/06/17 13:55:58;;;;;;;2.08;0.90;;;;;;;;;;5052525;28;19913;-75
2022/06/17 13:58:53;;;;;;;1.08;0.98;;;;;;;;;;5051953;28;20116;-73
2022/06/17 14:01:18;;;;;;;1.70;0.85;;;;;;;;;;5047872;28;20025;-75
2022/06/17 14:03:58;;;;;;;1.00;0.80;;;;;;;;;;5052361;28;20463;-74
2022/06/17 14:06:26;;;;;;;1.10;0.70;;;;;;;;;;5052280;28;20025;-74
2022/06/17 14:08:58;;;;;;;0.93;0.70;;;;;;;;;;5051886;28;20091;-73
2022/06/17 14:11:32;;;;;;;;;;;;;;;;;;5052168;28;20025;-76
2022/06/17 14:14:19;;;;;;;0.77;0.77;;;;;;;;;;5052191;28;20465;-74
2022/06/17 14:17:03;;;;;;;0.85;0.80;;;;;;;;;;5052284;28;20024;-75
2022/06/17 14:19:51;;;;;;;2.03;1.00;;;;;;;;;;5049185;28;20029;-75
2022/06/17 14:22:28;;;;;;;2.10;0.80;;;;;;;;;;5052115;28;20116;-72
2022/06/17 14:24:53;;;;;;;0.80;0.80;;;;;;;;;;5052070;28;20025;-74
2022/06/17 14:27:27;;;;;;;0.90;0.80;;;;;;;;;;5051809;28;20025;-76
2022/06/17 14:30:10;;;;;;;0.93;0.90;;;;;;;;;;5050589;28;20522;-72
2022/06/17 14:32:49;;;;;;;0.82;0.82;;;;;;;;;;5051744;28;20021;-73
2022/06/17 14:35:24;;;;;;;1.00;1.00;;;;;;;;;;5051655;28;20453;-74
2022/06/17 14:38:03;;;;;;;1.40;0.70;;;;;;;;;;5051602;28;20025;-74
2022/06/17 14:40:31;;;;;;;1.83;0.80;;;;;;;;;;5050224;28;20087;-72
2022/06/17 14:43:02;;;;;;;2.75;0.75;;;;;;;;;;5051871;28;20024;-73
2022/06/17 14:45:30;;;;;;;;;;;;;;;;;;5052041;28;20043;-72
2022/06/17 14:48:11;;;;;;;0.63;0.63;;;;;;;;;;5051376;28;19952;-73
2022/06/17 14:50:39;;;;;;;0.70;0.70;;;;;;;;;;5050442;28;20394;-75
2022/06/17 14:53:07;;;;;;;2.80;0.88;;;;;;;;;;5051514;28;20083;-74
2022/06/17 14:55:37;;;;;;;3.35;0.80;;;;;;;;;;5051411;28;20124;-75
2022/06/17 14:58:02;;;;;;;1.48;0.57;;;;;;;;;;5049602;28;20032;-75
2022/06/17 15:00:33;;;;;;;4.05;0.93;;;;;;;;;;5049421;28;20033;-74
2022/06/17 15:03:00;;;;;;;0.80;0.68;;;;;;;;;;5051495;28;20437;-75
2022/06/17 15:05:43;;;;;;;0.70;0.70;;;;;;;;;;5050996;28;20029;-75
2022/06/17 15:08:14;;;;;;;1.05;0.73;;;;;;;;;;5050189;28;20021;-74
2022/06/17 15:11:01;;;;;;;1.67;0.80;;;;;;;;;;5050470;28;20047;-75
2022/06/17 15:16:23;;;;;;;1.13;0.77;;;;;;;;;;5051285;28;20052;-73
2022/06/17 15:18:49;;;;;;;2.08;0.90;;;;;;;;;;5050677;28;20138;-76
2022/06/17 15:21:21;;;;;;;1.83;0.77;;;;;;;;;;5050846;28;20032;-73
2022/06/17 15:24:12;;;;;;;1.55;0.90;;;;;;;;;;5049475;28;20291;-74
2022/06/17 15:26:52;;;;;;;1.05;0.80;;;;;;;;;;5051133;28;20025;-75
2022/06/17 15:29:21;;;;;;;3.90;0.80;;;;;;;;;;5050351;28;20040;-75
2022/06/17 15:31:50;;;;;;;1.00;0.63;;;;;;;;;;5049851;28;20478;-75
2022/06/17 15:34:20;;;;;;;1.05;0.63;;;;;;;;;;5046659;28;20086;-74